createdAt,value
2023-09-14T00:01:47.406Z,96448.47
2023-09-14T00:04:35.026Z,96452.88
2023-09-14T00:07:21.614Z,96449.16
2023-09-14T00:10:08.543Z,96453.25
2023-09-14T00:12:56.807Z,96452.81
2023-09-14T00:15:43.747Z,96455.56
2023-09-14T00:18:31.607Z,96457.19
2023-09-14T00:21:18.598Z,96458.09
2023-09-14T00:24:05.258Z,96460.19
2023-09-14T00:26:52.213Z,96454.22
2023-09-14T00:29:38.186Z,96460.13
2023-09-14T00:32:25.023Z,96462.00
2023-09-14T00:35:12.782Z,96462.91
2023-09-14T00:37:59.391Z,96463.06
2023-09-14T00:40:45.487Z,96465.03
2023-09-14T00:43:32.174Z,96469.41
2023-09-14T00:46:19.681Z,96466.31
2023-09-14T00:49:07.312Z,96470.88
2023-09-14T00:51:53.908Z,96473.38
2023-09-14T00:54:41.392Z,96467.09
2023-09-14T00:57:27.670Z,96477.03
2023-09-14T01:00:15.282Z,96467.78
2023-09-14T01:03:02.334Z,96471.34
2023-09-14T01:05:50.402Z,96472.97
2023-09-14T01:08:37.017Z,96472.78
2023-09-14T01:11:23.429Z,96467.50
2023-09-14T01:14:18.693Z,96466.91
2023-09-14T01:17:51.531Z,96466.50
2023-09-14T01:20:50.636Z,96472.59
2023-09-14T01:23:39.526Z,96467.25
2023-09-14T01:26:29.307Z,96471.34
2023-09-14T01:29:16.338Z,96471.63
2023-09-14T01:32:03.463Z,96473.34
2023-09-14T01:34:50.128Z,96474.50
2023-09-14T01:37:36.924Z,96477.50
2023-09-14T01:40:24.698Z,96476.31
2023-09-14T01:43:12.782Z,96477.00
2023-09-14T01:45:59.461Z,96479.97
2023-09-14T01:48:46.679Z,96479.44
2023-09-14T01:51:33.090Z,96475.91
2023-09-14T01:54:20.281Z,96476.06
2023-09-14T01:57:06.112Z,96479.53
2023-09-14T01:59:52.668Z,96479.78
2023-09-14T02:02:38.830Z,96480.09
2023-09-14T02:05:25.840Z,96483.97
2023-09-14T02:08:11.713Z,96482.06
2023-09-14T02:11:01.089Z,96473.84
2023-09-14T02:13:49.078Z,96475.38
2023-09-14T02:16:36.052Z,96479.44
2023-09-14T02:19:22.841Z,96480.53
2023-09-14T02:22:11.837Z,96474.63
2023-09-14T02:24:58.305Z,96474.19
2023-09-14T02:27:45.476Z,96481.53
2023-09-14T02:30:31.779Z,96481.44
2023-09-14T02:33:19.068Z,96485.16
2023-09-14T02:36:05.435Z,96478.91
2023-09-14T02:38:52.424Z,96488.81
2023-09-14T02:41:38.383Z,96477.25
2023-09-14T02:44:25.462Z,96482.97
2023-09-14T02:47:11.324Z,96483.81
2023-09-14T02:49:59.983Z,96486.25
2023-09-14T02:52:46.487Z,96486.81
2023-09-14T02:55:36.038Z,96485.56
2023-09-14T02:58:22.589Z,96480.44
2023-09-14T03:01:11.619Z,96473.28
2023-09-14T03:03:59.435Z,96488.69
2023-09-14T03:06:46.806Z,96492.50
2023-09-14T03:09:33.250Z,96482.44
2023-09-14T03:12:20.402Z,96474.19
2023-09-14T03:15:08.510Z,96486.53
2023-09-14T03:17:55.180Z,96481.28
2023-09-14T03:20:46.745Z,96496.97
2023-09-14T03:23:33.313Z,96496.44
2023-09-14T03:26:19.820Z,96499.16
2023-09-14T03:29:08.785Z,96499.81
2023-09-14T03:31:55.288Z,96503.59
2023-09-14T03:34:42.945Z,96500.41
2023-09-14T03:37:30.031Z,96506.13
2023-09-14T03:40:17.796Z,96504.03
2023-09-14T03:43:04.022Z,96512.59
2023-09-14T03:45:50.998Z,96514.50
2023-09-14T03:48:40.039Z,96507.88
2023-09-14T03:51:26.860Z,96507.88
2023-09-14T03:54:12.832Z,96512.13
2023-09-14T03:56:59.761Z,96512.22
2023-09-14T03:59:47.876Z,96520.22
2023-09-14T04:02:35.170Z,96520.38
2023-09-14T04:05:21.460Z,96524.72
2023-09-14T04:08:08.774Z,96530.34
2023-09-14T04:10:55.536Z,96530.16
2023-09-14T04:13:41.403Z,96530.00
2023-09-14T04:16:30.871Z,96534.81
2023-09-14T04:19:19.155Z,96528.97
2023-09-14T04:22:05.318Z,96546.78
2023-09-14T04:24:51.786Z,96546.59
2023-09-14T04:27:38.274Z,96551.69
2023-09-14T04:30:25.228Z,96551.88
2023-09-14T04:33:16.244Z,96547.41
2023-09-14T04:36:06.409Z,96547.41
2023-09-14T04:38:53.405Z,96548.69
2023-09-14T04:41:39.423Z,96544.88
2023-09-14T04:44:25.313Z,96546.06
2023-09-14T04:47:12.357Z,96545.34
2023-09-14T04:49:58.494Z,96551.25
2023-09-14T04:52:45.214Z,96557.81
2023-09-14T04:55:31.341Z,96557.88
2023-09-14T04:58:18.025Z,96562.97
2023-09-14T05:01:06.641Z,96558.31
2023-09-14T05:03:54.492Z,96563.59
2023-09-14T05:06:40.788Z,96563.53
2023-09-14T05:09:27.143Z,96562.03
2023-09-14T05:12:13.341Z,96561.50
2023-09-14T05:15:00.739Z,96568.41
2023-09-14T05:17:49.144Z,96564.59
2023-09-14T05:20:35.587Z,96567.59
2023-09-14T05:23:21.583Z,96567.84
2023-09-14T05:26:10.825Z,96568.69
2023-09-14T05:28:57.028Z,96568.34
2023-09-14T05:31:44.367Z,96574.06
2023-09-14T05:34:31.596Z,96576.31
2023-09-14T05:37:18.452Z,96582.47
2023-09-14T05:40:13.431Z,96580.84
2023-09-14T05:43:06.986Z,96580.19
2023-09-14T05:45:53.290Z,96582.19
2023-09-14T05:48:40.839Z,96584.63
2023-09-14T05:51:27.603Z,96585.50
2023-09-14T05:54:14.703Z,96590.94
2023-09-14T05:57:01.684Z,96591.56
2023-09-14T05:59:48.550Z,96591.56
2023-09-14T06:02:34.586Z,96600.09
2023-09-14T06:05:26.009Z,96611.00
2023-09-14T06:08:13.360Z,96613.63
2023-09-14T06:11:00.607Z,96615.88
2023-09-14T06:13:48.904Z,96617.84
2023-09-14T06:16:35.224Z,96621.53
2023-09-14T06:19:22.285Z,96620.41
2023-09-14T06:22:10.155Z,96625.81
2023-09-14T06:24:56.484Z,96626.66
2023-09-14T06:27:47.727Z,96622.72
2023-09-14T06:30:34.366Z,96628.44
2023-09-14T06:33:21.781Z,96632.38
2023-09-14T06:36:09.224Z,96632.91
2023-09-14T06:38:56.063Z,96631.97
2023-09-14T06:41:42.191Z,96630.50
2023-09-14T06:44:30.130Z,96624.50
2023-09-14T06:47:16.952Z,96633.66
2023-09-14T06:50:07.673Z,96629.88
2023-09-14T06:52:54.868Z,96638.88
2023-09-14T06:55:41.046Z,96644.16
2023-09-14T06:58:27.446Z,96639.50
2023-09-14T07:01:14.513Z,96642.84
2023-09-14T07:04:01.738Z,96641.03
2023-09-14T07:06:48.601Z,96639.69
2023-09-14T07:09:35.053Z,96649.41
2023-09-14T07:12:22.370Z,96644.97
2023-09-14T07:15:08.999Z,96651.03
2023-09-14T07:17:55.646Z,96648.69
2023-09-14T07:20:42.456Z,96652.66
2023-09-14T07:23:31.665Z,96651.00
2023-09-14T07:26:17.659Z,96656.25
2023-09-14T07:29:06.815Z,96665.81
2023-09-14T07:31:54.676Z,96665.47
2023-09-14T07:34:41.879Z,96666.59
2023-09-14T07:37:28.474Z,96665.75
2023-09-14T07:40:15.953Z,96670.69
2023-09-14T07:43:02.217Z,96673.25
2023-09-14T07:45:49.418Z,96680.06
2023-09-14T07:48:35.609Z,96675.13
2023-09-14T07:51:22.087Z,96675.00
2023-09-14T07:54:08.093Z,96679.44
2023-09-14T07:56:55.552Z,96684.69
2023-09-14T07:59:42.122Z,96690.94
2023-09-14T08:02:29.463Z,96687.94
2023-09-14T08:05:16.449Z,96682.13
2023-09-14T08:08:04.990Z,96689.34
2023-09-14T08:10:54.897Z,96688.97
2023-09-14T08:13:41.773Z,96690.69
2023-09-14T08:16:32.362Z,96695.13
2023-09-14T08:19:19.932Z,96702.38
2023-09-14T08:22:07.317Z,96702.50
2023-09-14T08:24:55.891Z,96698.81
2023-09-14T08:27:42.618Z,96697.44
2023-09-14T08:30:29.695Z,96705.16
2023-09-14T08:33:20.188Z,96704.00
2023-09-14T08:36:07.057Z,96705.00
2023-09-14T08:39:03.478Z,96706.81
2023-09-14T08:41:59.871Z,96715.47
2023-09-14T08:44:48.640Z,96711.13
2023-09-14T08:47:35.620Z,96715.66
2023-09-14T08:50:25.793Z,96720.25
2023-09-14T08:53:14.323Z,96721.00
2023-09-14T08:56:02.417Z,96718.47
2023-09-14T08:58:49.876Z,96716.19
2023-09-14T09:01:36.859Z,96716.75
2023-09-14T09:04:24.049Z,96724.78
2023-09-14T09:07:10.751Z,96721.41
2023-09-14T09:09:58.010Z,96724.31
2023-09-14T09:12:46.748Z,96720.69
2023-09-14T09:15:36.458Z,96717.13
2023-09-14T09:18:22.545Z,96719.94
2023-09-14T09:21:09.756Z,96718.13
2023-09-14T09:23:57.978Z,96718.75
2023-09-14T09:26:47.005Z,96714.78
2023-09-14T09:29:33.773Z,96721.50
2023-09-14T09:32:24.296Z,96726.03
2023-09-14T09:35:36.691Z,96724.38
2023-09-14T09:38:25.732Z,96722.66
2023-09-14T09:41:12.295Z,96722.03
2023-09-14T09:43:59.083Z,96715.91
2023-09-14T09:46:45.576Z,96721.09
2023-09-14T09:49:33.186Z,96720.94
2023-09-14T09:52:20.204Z,96722.81
2023-09-14T09:55:08.942Z,96727.66
2023-09-14T09:57:59.016Z,96725.22
2023-09-14T10:00:46.003Z,96721.19
2023-09-14T10:03:32.443Z,96718.75
2023-09-14T10:06:19.891Z,96726.81
2023-09-14T10:09:10.901Z,96724.28
2023-09-14T10:11:59.159Z,96724.00
2023-09-14T10:14:48.845Z,96733.28
2023-09-14T10:17:37.012Z,96725.56
2023-09-14T10:20:25.108Z,96722.53
2023-09-14T10:23:16.285Z,96715.16
2023-09-14T10:26:03.279Z,96710.22
2023-09-14T10:28:50.895Z,96714.00
2023-09-14T10:31:37.630Z,96718.22
2023-09-14T10:34:25.580Z,96709.00
2023-09-14T10:37:12.852Z,96712.69
2023-09-14T10:40:03.397Z,96708.97
2023-09-14T10:42:49.853Z,96717.13
2023-09-14T10:45:44.882Z,96706.28
2023-09-14T10:48:32.090Z,96707.59
2023-09-14T10:51:19.240Z,96708.09
2023-09-14T10:54:05.669Z,96708.53
2023-09-14T10:56:59.507Z,96705.97
2023-09-14T10:59:53.011Z,96705.97
2023-09-14T11:02:51.352Z,96707.59
2023-09-14T11:05:48.748Z,96703.81
2023-09-14T11:09:03.938Z,96706.44
2023-09-14T11:11:57.608Z,96706.72
2023-09-14T11:15:23.180Z,96700.03
2023-09-14T11:18:10.029Z,96704.44
2023-09-14T11:20:58.370Z,96703.56
2023-09-14T11:23:45.208Z,96699.59
2023-09-14T11:26:34.340Z,96703.34
2023-09-14T11:29:24.620Z,96699.41
2023-09-14T11:32:12.209Z,96701.94
2023-09-14T11:35:03.700Z,96699.16
2023-09-14T11:37:54.737Z,96698.16
2023-09-14T11:40:45.796Z,96694.19
2023-09-14T11:43:45.102Z,96687.41
2023-09-14T11:46:40.408Z,96684.84
2023-09-14T11:49:32.146Z,96685.91
2023-09-14T11:52:21.613Z,96685.50
2023-09-14T11:55:09.060Z,96681.44
2023-09-14T11:57:58.727Z,96686.47
2023-09-14T12:00:52.473Z,96694.34
2023-09-14T12:03:39.632Z,96691.13
2023-09-14T12:06:28.181Z,96689.50
2023-09-14T12:09:30.859Z,96698.84
2023-09-14T12:12:31.906Z,96690.13
2023-09-14T12:15:20.078Z,96688.72
2023-09-14T12:18:07.796Z,96690.34
2023-09-14T12:20:54.223Z,96690.34
2023-09-14T12:23:43.586Z,96695.41
2023-09-14T12:26:29.977Z,96689.13
2023-09-14T12:29:17.425Z,96698.91
2023-09-14T12:32:04.251Z,96694.50
2023-09-14T12:34:51.176Z,96694.91
2023-09-14T12:37:39.003Z,96692.50
2023-09-14T12:40:26.429Z,96686.34
2023-09-14T12:43:12.854Z,96685.06
2023-09-14T12:46:11.540Z,96683.50
2023-09-14T12:49:16.734Z,96691.16
2023-09-14T12:52:08.707Z,96682.72
2023-09-14T12:54:56.334Z,96673.66
2023-09-14T12:57:52.837Z,96686.22
2023-09-14T13:00:40.409Z,96689.50
2023-09-14T13:03:27.530Z,96687.72
2023-09-14T13:06:13.759Z,96681.47
2023-09-14T13:09:00.678Z,96679.25
2023-09-14T13:11:52.314Z,96673.59
2023-09-14T13:14:45.468Z,96679.53
2023-09-14T13:17:31.853Z,96682.81
2023-09-14T13:20:19.848Z,96671.38
2023-09-14T13:23:06.648Z,96670.47
2023-09-14T13:25:53.866Z,96669.63
2023-09-14T13:28:40.193Z,96663.41
2023-09-14T13:31:27.771Z,96658.66
2023-09-14T13:34:14.472Z,96651.84
2023-09-14T13:37:01.233Z,96658.38
2023-09-14T13:39:47.949Z,96656.09
2023-09-14T13:42:36.094Z,96657.56
2023-09-14T13:45:23.170Z,96649.00
2023-09-14T13:48:09.491Z,96652.72
2023-09-14T13:50:56.072Z,96649.03
2023-09-14T13:53:42.676Z,96652.72
2023-09-14T13:56:28.619Z,96647.00
2023-09-14T13:59:17.038Z,96641.72
2023-09-14T14:02:04.942Z,96638.03
2023-09-14T14:04:52.401Z,96627.22
2023-09-14T14:07:38.919Z,96628.84
2023-09-14T14:10:25.206Z,96630.69
2023-09-14T14:13:11.555Z,96635.38
2023-09-14T14:15:57.938Z,96638.84
2023-09-14T14:18:45.263Z,96641.25
2023-09-14T14:21:32.346Z,96636.34
2023-09-14T14:24:18.837Z,96638.41
2023-09-14T14:27:06.246Z,96630.47
2023-09-14T14:29:52.593Z,96629.03
2023-09-14T14:32:40.079Z,96629.03
2023-09-14T14:35:26.493Z,96631.88
2023-09-14T14:38:13.546Z,96632.06
2023-09-14T14:41:33.536Z,96630.03
2023-09-14T14:44:07.141Z,96626.19
2023-09-14T14:46:55.248Z,96622.72
2023-09-14T14:49:42.287Z,96624.34
2023-09-14T14:52:28.495Z,96621.50
2023-09-14T14:55:17.648Z,96626.56
2023-09-14T14:58:04.880Z,96624.16
2023-09-14T15:00:52.966Z,96623.31
2023-09-14T15:03:43.193Z,96631.09
2023-09-14T15:06:31.376Z,96638.84
2023-09-14T15:09:17.812Z,96631.47
2023-09-14T15:12:05.701Z,96626.97
2023-09-14T15:14:53.493Z,96630.25
2023-09-14T15:17:40.030Z,96630.25
2023-09-14T15:20:34.398Z,96633.09
2023-09-14T15:23:21.265Z,96624.13
2023-09-14T15:26:07.717Z,96627.16
2023-09-14T15:28:56.489Z,96623.31
2023-09-14T15:31:42.910Z,96622.91
2023-09-14T15:34:29.836Z,96619.22
2023-09-14T15:37:16.013Z,96629.22
2023-09-14T15:40:04.390Z,96625.50
2023-09-14T15:42:50.424Z,96624.84
2023-09-14T15:45:41.101Z,96634.22
2023-09-14T15:48:28.564Z,96628.94
2023-09-14T15:51:19.252Z,96631.16
2023-09-14T15:54:05.659Z,96639.09
2023-09-14T15:56:52.281Z,96630.53
2023-09-14T15:59:39.236Z,96643.16
2023-09-14T16:02:26.351Z,96637.69
2023-09-14T16:05:12.937Z,96629.75
2023-09-14T16:08:10.730Z,96635.06
2023-09-14T16:10:57.893Z,96632.41
2023-09-14T16:13:45.580Z,96631.97
2023-09-14T16:16:32.551Z,96637.91
2023-09-14T16:19:21.846Z,96632.59
2023-09-14T16:22:08.542Z,96628.44
2023-09-14T16:24:55.167Z,96622.94
2023-09-14T16:27:41.821Z,96626.41
2023-09-14T16:30:28.977Z,96632.50
2023-09-14T16:33:15.575Z,96628.84
2023-09-14T16:36:02.152Z,96626.19
2023-09-14T16:38:48.995Z,96628.03
2023-09-14T16:41:38.006Z,96625.56
2023-09-14T16:44:25.645Z,96633.31
2023-09-14T16:47:12.596Z,96633.09
2023-09-14T16:49:59.115Z,96636.75
2023-09-14T16:52:46.501Z,96633.47
2023-09-14T16:55:33.066Z,96638.34
2023-09-14T16:58:19.980Z,96634.06
2023-09-14T17:01:06.863Z,96633.69
2023-09-14T17:03:54.188Z,96626.56
2023-09-14T17:06:41.351Z,96629.41
2023-09-14T17:09:27.855Z,96626.75
2023-09-14T17:12:14.460Z,96627.97
2023-09-14T17:15:03.241Z,96619.00
2023-09-14T17:17:50.737Z,96617.94
2023-09-14T17:20:37.502Z,96625.03
2023-09-14T17:23:23.854Z,96627.03
2023-09-14T17:26:11.693Z,96631.47
2023-09-14T17:29:00.760Z,96643.03
2023-09-14T17:31:48.063Z,96634.00
2023-09-14T17:34:37.952Z,96635.69
2023-09-14T17:37:26.407Z,96651.06
2023-09-14T17:40:13.790Z,96646.31
2023-09-14T17:43:00.977Z,96650.94
2023-09-14T17:45:47.770Z,96652.56
2023-09-14T17:48:34.994Z,96645.28
2023-09-14T17:51:21.498Z,96655.34
2023-09-14T17:54:08.160Z,96652.53
2023-09-14T17:56:55.416Z,96650.91
2023-09-14T17:59:42.323Z,96654.47
2023-09-14T18:02:28.729Z,96653.88
2023-09-14T18:05:17.050Z,96653.44
2023-09-14T18:08:04.803Z,96658.31
2023-09-14T18:10:52.994Z,96659.66
2023-09-14T18:13:39.646Z,96656.94
2023-09-14T18:16:27.349Z,96665.03
2023-09-14T18:19:16.049Z,96660.94
2023-09-14T18:22:02.792Z,96669.22
2023-09-14T18:24:53.849Z,96665.78
2023-09-14T18:27:40.634Z,96673.13
2023-09-14T18:30:26.774Z,96673.94
2023-09-14T18:33:13.471Z,96674.78
2023-09-14T18:36:00.567Z,96678.22
2023-09-14T18:38:49.489Z,96678.84
2023-09-14T18:41:35.572Z,96675.88
2023-09-14T18:44:21.584Z,96681.41
2023-09-14T18:47:10.419Z,96675.38
2023-09-14T18:49:57.662Z,96681.94
2023-09-14T18:52:45.459Z,96688.84
2023-09-14T18:55:35.279Z,96689.09
2023-09-14T18:58:50.463Z,96685.47
2023-09-14T19:01:30.676Z,96684.03
2023-09-14T19:04:19.219Z,96682.38
2023-09-14T19:07:06.157Z,96690.19
2023-09-14T19:09:54.632Z,96678.66
2023-09-14T19:12:46.757Z,96695.03
2023-09-14T19:15:34.022Z,96690.84
2023-09-14T19:18:21.041Z,96686.66
2023-09-14T19:21:09.321Z,96680.84
2023-09-14T19:23:56.241Z,96683.56
2023-09-14T19:26:42.958Z,96679.28
2023-09-14T19:29:29.839Z,96682.97
2023-09-14T19:32:16.316Z,96684.09
2023-09-14T19:35:04.620Z,96687.56
2023-09-14T19:37:50.723Z,96688.09
2023-09-14T19:40:38.241Z,96679.53
2023-09-14T19:43:28.127Z,96688.88
2023-09-14T19:46:15.181Z,96680.97
2023-09-14T19:49:01.960Z,96686.16
2023-09-14T19:51:48.615Z,96688.31
2023-09-14T19:54:35.593Z,96692.25
2023-09-14T19:57:23.144Z,96690.97
2023-09-14T20:00:09.372Z,96687.84
2023-09-14T20:02:56.414Z,96694.41
2023-09-14T20:05:43.367Z,96698.31
2023-09-14T20:08:31.068Z,96699.97
2023-09-14T20:11:17.195Z,96696.06
2023-09-14T20:14:04.820Z,96701.84
2023-09-14T20:16:52.612Z,96701.22
2023-09-14T20:19:40.330Z,96700.41
2023-09-14T20:22:27.152Z,96696.13
2023-09-14T20:25:14.108Z,96689.09
2023-09-14T20:28:00.543Z,96689.34
2023-09-14T20:30:49.264Z,96693.28
2023-09-14T20:33:35.639Z,96690.19
2023-09-14T20:36:23.514Z,96685.94
2023-09-14T20:39:11.988Z,96691.84
2023-09-14T20:41:59.709Z,96693.66
2023-09-14T20:44:46.993Z,96689.94
2023-09-14T20:47:35.598Z,96678.91
2023-09-14T20:50:23.295Z,96689.78
2023-09-14T20:53:10.603Z,96683.94
2023-09-14T20:55:58.728Z,96680.81
2023-09-14T20:58:46.343Z,96678.47
2023-09-14T21:01:33.184Z,96675.84
2023-09-14T21:04:19.961Z,96676.78
2023-09-14T21:07:09.007Z,96673.66
2023-09-14T21:09:57.394Z,96680.56
2023-09-14T21:12:44.638Z,96673.31
2023-09-14T21:15:35.597Z,96673.31
2023-09-14T21:18:25.632Z,96672.19
2023-09-14T21:21:14.875Z,96676.13
2023-09-14T21:24:00.981Z,96670.50
2023-09-14T21:26:47.837Z,96674.25
2023-09-14T21:29:34.083Z,96667.53
2023-09-14T21:32:20.609Z,96666.09
2023-09-14T21:35:07.625Z,96668.91
2023-09-14T21:37:54.486Z,96669.22
2023-09-14T21:40:41.079Z,96662.50
2023-09-14T21:43:29.621Z,96654.16
2023-09-14T21:46:16.208Z,96657.31
2023-09-14T21:49:05.580Z,96653.69
2023-09-14T21:51:51.879Z,96653.59
2023-09-14T21:54:40.060Z,96658.53
2023-09-14T21:57:26.458Z,96655.09
2023-09-14T22:00:22.311Z,96649.66
2023-09-14T22:03:08.893Z,96643.94
2023-09-14T22:05:56.051Z,96652.00
2023-09-14T22:08:42.754Z,96647.22
2023-09-14T22:11:29.089Z,96639.94
2023-09-14T22:14:15.630Z,96644.09
2023-09-14T22:17:09.294Z,96633.81
2023-09-14T22:19:56.235Z,96640.06
2023-09-14T22:22:43.426Z,96637.91
2023-09-14T22:25:29.810Z,96642.19
2023-09-14T22:28:16.805Z,96644.00
2023-09-14T22:31:03.264Z,96650.72
2023-09-14T22:33:50.186Z,96647.28
2023-09-14T22:36:37.082Z,96648.91
2023-09-14T22:39:24.656Z,96647.13
2023-09-14T22:42:11.053Z,96650.53
2023-09-14T22:44:58.226Z,96644.31
2023-09-14T22:47:44.952Z,96636.47
2023-09-14T22:50:31.934Z,96635.19
2023-09-14T22:53:18.872Z,96632.59
2023-09-14T22:56:16.396Z,96632.28
2023-09-14T22:59:03.947Z,96632.97
2023-09-14T23:01:51.410Z,96632.66
2023-09-14T23:04:37.606Z,96633.63
2023-09-14T23:07:25.093Z,96633.63
2023-09-14T23:10:11.970Z,96627.09
2023-09-14T23:13:01.807Z,96630.53
2023-09-14T23:15:48.145Z,96626.59
2023-09-14T23:18:41.011Z,96628.84
2023-09-14T23:21:27.205Z,96620.50
2023-09-14T23:24:17.311Z,96622.50
2023-09-14T23:27:05.329Z,96634.47
2023-09-14T23:29:52.173Z,96623.81
2023-09-14T23:32:39.125Z,96622.84
2023-09-14T23:35:27.408Z,96615.97
2023-09-14T23:38:13.898Z,96617.28
2023-09-14T23:41:01.296Z,96622.03
2023-09-14T23:43:47.402Z,96619.25
2023-09-14T23:46:34.809Z,96619.25
2023-09-14T23:49:21.021Z,96619.25
2023-09-14T23:52:08.291Z,96623.00
2023-09-14T23:54:54.600Z,96627.44
2023-09-14T23:57:42.059Z,96623.00
